首页
METAR-TAF:

METAR-TAF

机场 :

Wittering, 英格兰

纬度: 52-37N, 经度: 000-28W, 海拔: 84米

当前天气观测

该预报发布于1小时和12分钟前的21:50 UTC
风速11节,风向
温度 10°C
湿度 87%
气压 1008 hPa
能见度10公里或以上

METAR: EGXT 032150Z AUTO 36011KT 9999 SCT011/// SCT020/// BKN100/// 10/08 Q1008 RERA

时间: 00:02 (23:02 UTC)

预报

该预报发布于8小时和58分钟前的14:04 UTC
预报有效从03日的 15点(UTC)到 03日的 18点(UTC)
风速12节,风向北转东北
能见度10公里或以上
多云层高于4000英尺
短暂存在
从 03日的 15点(UTC)到 03日的 18点(UTC)
能見度: 5000
多云层高于1700英尺
几率 30% :
短暂存在
从 03日的 15点(UTC)到 03日的 18点(UTC)
多云层高于1300英尺

TAF: EGXT 031404Z 0315/0318 03012KT 9999 BKN040 TEMPO 0315/0318 5000 RA BKN017 PROB30 TEMPO 0315/0318 BKN013

超过4000个机场的气象观测和天气预报(METAR&TAF报告)。

可查询的气象台以黄色和红色小点在地图上表示。

将鼠标移到小点上方,可查看气象台名称。

然后点击查看天气观测和预报。

如需切换地图:点击带黑十字的绿色按钮放大地图;点击带横线的绿色按钮缩小地图;或者点击绿色箭头查看邻近地区的地图。


METAR-TAF: